Time;durP1;ratioP1;P1;durP2;ratioP2;P2;SDS_P1;SDS_P2;PMS_P1;PMS_P2;Temp;Humidity;BMP_temperature;BMP_pressure;BME280_temperature;BME280_humidity;BME280_pressure;Samples;Min_cycle;Max_cycle;Signal;HPM_P1;HPM_P2
2022/12/23 00:00:16;;;;;;;3.47;1.50;;;9.90;99.90;;;;;;5034250;28;20198;-44
2022/12/23 00:02:42;;;;;;;3.40;1.50;;;9.90;99.90;;;;;;5034655;28;20268;-41
2022/12/23 00:05:08;;;;;;;3.53;1.50;;;9.90;99.90;;;;;;5034939;28;20279;-44
2022/12/23 00:07:34;;;;;;;7.43;1.40;;;10.00;99.90;;;;;;5034185;28;20188;-43
2022/12/23 00:10:00;;;;;;;5.77;1.37;;;9.90;99.90;;;;;;5034286;28;20186;-42
2022/12/23 00:15:10;;;;;;;5.90;1.50;;;10.00;99.90;;;;;;5034249;28;20262;-45
2022/12/23 00:17:44;;;;;;;4.03;1.23;;;10.00;99.90;;;;;;5034673;28;20197;-43
2022/12/23 00:20:12;;;;;;;3.87;1.60;;;10.00;99.90;;;;;;5034010;28;20177;-43
2022/12/23 00:25:39;;;;;;;7.00;1.93;;;10.00;99.90;;;;;;5034355;28;20198;-43
2022/12/23 00:28:12;;;;;;;3.47;1.40;;;10.00;99.90;;;;;;5016422;28;20675;-45
2022/12/23 00:30:45;;;;;;;6.10;1.93;;;10.00;99.90;;;;;;5034356;28;20203;-45
2022/12/23 00:33:12;;;;;;;3.17;1.53;;;10.00;99.90;;;;;;5034202;28;20163;-45
2022/12/23 00:35:37;;;;;;;5.63;1.73;;;10.00;99.90;;;;;;5033707;28;20250;-44
2022/12/23 00:38:03;;;;;;;5.57;2.10;;;10.00;99.90;;;;;;5033986;28;20679;-44
2022/12/23 00:43:12;;;;;;;7.90;2.13;;;10.10;99.90;;;;;;5034007;28;20195;-45
2022/12/23 00:45:38;;;;;;;3.40;1.93;;;10.00;99.90;;;;;;5034161;28;20179;-49
2022/12/23 00:51:02;;;;;;;6.57;2.03;;;10.00;99.90;;;;;;5000395;28;20211;-48
2022/12/23 00:53:27;;;;;;;6.60;2.23;;;10.10;99.90;;;;;;5033886;28;20186;-49
2022/12/23 00:55:53;;;;;;;5.57;2.30;;;10.10;99.90;;;;;;5033361;28;20662;-49
2022/12/23 00:58:20;;;;;;;4.60;2.50;;;10.00;99.90;;;;;;5033865;28;20211;-49
2022/12/23 01:06:16;;;;;;;5.47;2.67;;;10.00;99.90;;;;;;5033575;28;20174;-49
2022/12/23 01:08:42;;;;;;;8.37;3.07;;;10.00;99.90;;;;;;5035721;28;20692;-49
2022/12/23 01:11:10;;;;;;;7.17;3.07;;;9.90;99.90;;;;;;5033596;28;20196;-48
2022/12/23 01:13:36;;;;;;;7.83;3.13;;;9.90;99.90;;;;;;5033443;28;20273;-49
2022/12/23 01:16:04;;;;;;;5.77;3.30;;;9.90;99.90;;;;;;5033273;28;20208;-51
2022/12/23 01:18:30;;;;;;;5.77;2.97;;;10.00;99.90;;;;;;5033624;28;20179;-48
2022/12/23 01:20:55;;;;;;;8.67;3.57;;;9.90;99.90;;;;;;5033274;28;20210;-50
2022/12/23 01:23:21;;;;;;;8.80;3.33;;;9.90;99.90;;;;;;5034049;28;20234;-49
2022/12/23 01:25:54;;;;;;;6.90;3.33;;;9.90;99.90;;;;;;5033806;28;20537;-49
2022/12/23 01:28:19;;;;;;;8.50;3.80;;;9.90;99.90;;;;;;5033183;28;20185;-50
2022/12/23 01:30:47;;;;;;;6.77;3.60;;;9.90;99.90;;;;;;5033297;28;20200;-47
2022/12/23 01:33:12;;;;;;;6.20;3.70;;;9.90;99.90;;;;;;5033582;28;20247;-49
2022/12/23 01:35:38;;;;;;;8.10;4.03;;;9.90;99.90;;;;;;5032930;28;20290;-50
2022/12/23 01:38:03;;;;;;;9.93;4.07;;;9.90;99.90;;;;;;5033123;28;20180;-47
2022/12/23 01:40:34;;;;;;;7.20;4.57;;;9.90;99.90;;;;;;5032866;28;20177;-48
2022/12/23 01:43:00;;;;;;;5.63;3.97;;;9.90;99.90;;;;;;5033272;28;20172;-49
2022/12/23 01:45:31;;;;;;;7.03;4.33;;;9.90;99.90;;;;;;5032966;28;20185;-48
2022/12/23 01:48:08;;;;;;;6.97;4.10;;;9.90;99.90;;;;;;5032975;28;20180;-48
2022/12/23 01:50:43;;;;;;;6.23;3.50;;;9.90;99.90;;;;;;5032888;28;20170;-51
2022/12/23 01:53:13;;;;;;;8.53;4.50;;;9.90;99.90;;;;;;5033126;28;20268;-50
2022/12/23 01:55:46;;;;;;;9.67;4.20;;;10.00;99.90;;;;;;5033107;28;20207;-49
2022/12/23 01:58:16;;;;;;;10.67;4.30;;;9.90;99.90;;;;;;5032986;28;20220;-49
2022/12/23 02:03:42;;;;;;;9.30;4.40;;;9.90;99.90;;;;;;5033115;28;20214;-51
2022/12/23 02:09:16;;;;;;;11.43;4.80;;;10.00;99.90;;;;;;5033303;28;20529;-49
2022/12/23 02:12:06;;;;;;;10.20;4.90;;;9.90;99.90;;;;;;5033030;28;20295;-50
2022/12/23 02:18:06;;;;;;;13.53;4.90;;;10.00;99.90;;;;;;5036140;28;20166;-50
2022/12/23 02:21:02;;;;;;;9.40;4.50;;;9.90;99.90;;;;;;5036380;28;20636;-50
2022/12/23 02:23:49;;;;;;;6.40;3.67;;;10.00;99.90;;;;;;5036639;28;20633;-47
2022/12/23 02:26:55;;;;;;;10.50;4.83;;;10.00;99.90;;;;;;5036720;28;20529;-49
2022/12/23 02:29:36;;;;;;;8.13;4.00;;;9.90;99.90;;;;;;5036323;28;20169;-47
2022/12/23 02:32:07;;;;;;;9.70;4.23;;;10.00;99.90;;;;;;5036296;28;20203;-51
2022/12/23 02:34:58;;;;;;;13.37;3.90;;;10.00;99.90;;;;;;5036352;28;20207;-48
2022/12/23 02:37:39;;;;;;;8.53;3.63;;;10.00;99.90;;;;;;5036526;28;20173;-49
2022/12/23 02:40:28;;;;;;;8.73;3.57;;;10.00;99.90;;;;;;5036341;28;20540;-48
2022/12/23 02:43:31;;;;;;;8.87;3.80;;;10.00;99.90;;;;;;5036376;28;20173;-50
2022/12/23 02:46:00;;;;;;;12.10;3.63;;;10.00;99.90;;;;;;5035852;28;20184;-47
2022/12/23 02:48:50;;;;;;;10.03;4.20;;;10.00;99.90;;;;;;5035815;28;20179;-47
2022/12/23 02:51:17;;;;;;;9.03;3.70;;;10.00;99.90;;;;;;5035944;28;20223;-48
2022/12/23 02:53:55;;;;;;;11.00;3.87;;;10.00;99.90;;;;;;5035962;28;20242;-48
2022/12/23 02:56:23;;;;;;;11.53;3.97;;;9.90;99.90;;;;;;5035621;28;20199;-50
2022/12/23 02:59:16;;;;;;;10.73;3.37;;;10.00;99.90;;;;;;5017827;28;20307;-50
2022/12/23 03:01:43;;;;;;;14.07;4.30;;;9.90;99.90;;;;;;5035866;28;20231;-48
2022/12/23 03:04:09;;;;;;;7.43;3.60;;;9.90;99.90;;;;;;5035872;28;20547;-48
2022/12/23 03:06:43;;;;;;;7.90;3.97;;;9.90;99.90;;;;;;5035559;28;20185;-47
2022/12/23 03:09:16;;;;;;;10.07;4.00;;;9.90;99.90;;;;;;5035668;28;20176;-47
2022/12/23 03:12:26;;;;;;;9.07;3.43;;;9.90;99.90;;;;;;5035653;28;20561;-48
2022/12/23 03:15:11;;;;;;;8.23;3.77;;;9.90;99.90;;;;;;5035518;28;20191;-48
2022/12/23 03:17:54;;;;;;;16.20;3.37;;;9.90;99.90;;;;;;5035460;28;20171;-49
2022/12/23 03:20:28;;;;;;;8.57;3.60;;;9.90;99.90;;;;;;5035227;28;20264;-49
2022/12/23 03:23:24;;;;;;;9.20;2.97;;;9.90;99.90;;;;;;5017970;28;20193;-46
2022/12/23 03:26:10;;;;;;;11.30;3.70;;;9.90;99.90;;;;;;5035470;28;20232;-47
2022/12/23 03:29:00;;;;;;;9.33;3.53;;;9.90;99.90;;;;;;5034456;28;20178;-49
2022/12/23 03:31:28;;;;;;;11.27;3.20;;;9.90;99.90;;;;;;5035411;28;20207;-49
2022/12/23 03:34:00;;;;;;;7.60;3.10;;;9.90;99.90;;;;;;5035658;28;20190;-50
2022/12/23 03:36:38;;;;;;;8.87;2.90;;;9.90;99.90;;;;;;5035400;28;20195;-48
2022/12/23 03:39:09;;;;;;;7.37;2.63;;;9.90;99.90;;;;;;5017202;28;20174;-50
2022/12/23 03:41:40;;;;;;;8.43;3.10;;;9.90;99.90;;;;;;5035118;28;20202;-48
2022/12/23 03:44:12;;;;;;;6.70;2.27;;;9.90;99.90;;;;;;5035182;28;20170;-47
2022/12/23 03:46:46;;;;;;;6.57;2.50;;;9.90;99.90;;;;;;5035195;28;20170;-50
2022/12/23 03:49:22;;;;;;;5.17;2.50;;;9.90;99.90;;;;;;5035240;28;20178;-47
2022/12/23 03:51:55;;;;;;;5.83;2.40;;;9.90;99.90;;;;;;5034977;28;20278;-49
2022/12/23 03:54:27;;;;;;;6.23;1.90;;;9.90;99.90;;;;;;5035653;28;20208;-49
2022/12/23 03:57:00;;;;;;;5.13;2.10;;;9.90;99.90;;;;;;5035485;28;20183;-48
2022/12/23 03:59:30;;;;;;;4.90;2.03;;;9.90;99.90;;;;;;5034762;28;20199;-49
2022/12/23 04:02:08;;;;;;;6.87;2.40;;;9.90;99.90;;;;;;5034802;28;20208;-49
2022/12/23 04:05:08;;;;;;;5.63;2.13;;;9.90;99.90;;;;;;5035366;28;20512;-48
2022/12/23 04:07:42;;;;;;;4.80;1.97;;;9.90;99.90;;;;;;5021202;28;20625;-49
2022/12/23 04:10:09;;;;;;;5.73;1.90;;;9.90;99.90;;;;;;5035263;28;20175;-49
2022/12/23 04:12:35;;;;;;;3.03;1.67;;;9.80;99.90;;;;;;5034331;28;20239;-49
2022/12/23 04:15:01;;;;;;;7.20;2.03;;;9.80;99.90;;;;;;5016794;28;20206;-50
2022/12/23 04:17:28;;;;;;;6.23;2.40;;;9.80;99.90;;;;;;5034809;28;20183;-51
2022/12/23 04:19:54;;;;;;;10.33;2.73;;;9.80;99.90;;;;;;5034762;28;20185;-48
2022/12/23 04:22:20;;;;;;;4.67;2.07;;;9.80;99.90;;;;;;5034474;28;20199;-51
2022/12/23 04:24:45;;;;;;;5.07;1.63;;;9.80;99.90;;;;;;5034594;28;20224;-49
2022/12/23 04:27:13;;;;;;;4.73;1.73;;;9.80;99.90;;;;;;5034277;28;20670;-47
2022/12/23 04:29:39;;;;;;;3.93;1.70;;;9.80;99.90;;;;;;5034365;28;20178;-50
2022/12/23 04:32:05;;;;;;;6.17;2.10;;;9.70;99.90;;;;;;5034051;28;20280;-48
2022/12/23 04:34:30;;;;;;;7.30;2.27;;;9.80;99.90;;;;;;5034245;28;20201;-47
2022/12/23 04:36:56;;;;;;;4.60;1.70;;;9.70;99.90;;;;;;5034305;28;20179;-51
2022/12/23 04:39:21;;;;;;;4.70;2.17;;;9.70;99.90;;;;;;5033719;28;20179;-49
2022/12/23 04:41:47;;;;;;;12.40;2.57;;;9.70;99.90;;;;;;5034026;28;20203;-51
2022/12/23 04:44:13;;;;;;;9.43;3.00;;;9.70;99.90;;;;;;5016468;28;20665;-49
2022/12/23 04:46:38;;;;;;;10.07;3.30;;;9.70;99.90;;;;;;5034331;28;20188;-49
2022/12/23 04:49:04;;;;;;;9.27;3.97;;;9.70;99.90;;;;;;5034048;28;20182;-48
2022/12/23 04:51:30;;;;;;;9.63;3.17;;;9.80;99.90;;;;;;5033808;28;20201;-51
2022/12/23 04:53:55;;;;;;;12.63;3.17;;;9.70;99.90;;;;;;5033726;28;20257;-51
2022/12/23 04:56:21;;;;;;;10.83;3.63;;;9.70;99.90;;;;;;5033718;28;20210;-50
2022/12/23 04:58:47;;;;;;;8.83;3.37;;;9.70;99.90;;;;;;5033849;28;20202;-49
2022/12/23 05:01:13;;;;;;;8.23;3.30;;;9.70;99.90;;;;;;5033911;28;20207;-50
2022/12/23 05:03:39;;;;;;;11.40;3.90;;;9.70;99.90;;;;;;5034332;28;20179;-48
2022/12/23 05:06:05;;;;;;;10.13;3.73;;;9.70;99.90;;;;;;5015919;28;20244;-49
2022/12/23 05:08:31;;;;;;;8.00;3.23;;;9.70;99.90;;;;;;5034052;28;20270;-49
2022/12/23 05:10:56;;;;;;;7.97;3.23;;;9.70;99.90;;;;;;5034016;28;20207;-46
2022/12/23 05:13:22;;;;;;;11.33;3.57;;;9.70;99.90;;;;;;5015952;28;20177;-49
2022/12/23 05:15:50;;;;;;;12.03;3.53;;;9.70;99.90;;;;;;5033379;28;20205;-49
2022/12/23 05:18:16;;;;;;;10.87;4.03;;;9.70;99.90;;;;;;5033903;28;20182;-50
2022/12/23 05:20:42;;;;;;;6.07;3.30;;;9.70;99.90;;;;;;5033281;28;20214;-49
2022/12/23 05:23:07;;;;;;;7.20;3.23;;;9.80;99.90;;;;;;5033726;28;20634;-49
2022/12/23 05:25:35;;;;;;;6.27;2.87;;;9.70;99.90;;;;;;5033866;28;20235;-48
2022/12/23 05:28:02;;;;;;;10.07;3.60;;;9.70;99.90;;;;;;5033898;28;20226;-49
2022/12/23 05:30:27;;;;;;;13.50;3.13;;;9.70;99.90;;;;;;5033441;28;20184;-50
2022/12/23 05:32:54;;;;;;;9.87;3.83;;;9.70;99.90;;;;;;5033079;28;20194;-49
2022/12/23 05:35:20;;;;;;;14.67;3.47;;;9.70;99.90;;;;;;5033016;28;20247;-49
2022/12/23 05:37:46;;;;;;;12.20;3.33;;;9.70;99.90;;;;;;5033081;28;20177;-51
2022/12/23 05:40:12;;;;;;;9.00;3.60;;;9.80;99.90;;;;;;5033288;28;20227;-50
2022/12/23 05:42:37;;;;;;;8.00;3.33;;;9.80;99.90;;;;;;5032990;28;20737;-49
2022/12/23 05:45:03;;;;;;;7.43;3.47;;;9.80;99.90;;;;;;5033441;28;20222;-50
2022/12/23 05:47:28;;;;;;;9.17;3.70;;;9.80;99.90;;;;;;5032977;28;20174;-50
2022/12/23 05:49:54;;;;;;;9.60;3.20;;;9.80;99.90;;;;;;5032935;28;20277;-49
2022/12/23 05:52:20;;;;;;;7.53;3.00;;;9.80;99.90;;;;;;5035689;28;20234;-50
2022/12/23 05:54:45;;;;;;;8.60;3.67;;;9.80;99.90;;;;;;5036935;28;20535;-50
2022/12/23 05:57:11;;;;;;;14.50;3.70;;;9.80;99.90;;;;;;5037062;28;20222;-50
2022/12/23 05:59:37;;;;;;;11.03;3.70;;;9.80;99.90;;;;;;5018849;28;20251;-51
2022/12/23 06:02:03;;;;;;;11.93;4.07;;;9.80;99.90;;;;;;5036593;28;20197;-50
2022/12/23 06:04:28;;;;;;;10.70;3.60;;;9.70;99.90;;;;;;5036637;28;20186;-51
2022/12/23 06:06:54;;;;;;;9.77;4.17;;;9.80;99.90;;;;;;5036713;28;20183;-44
2022/12/23 06:09:20;;;;;;;11.77;3.50;;;9.80;99.90;;;;;;5036863;28;20180;-49
2022/12/23 06:11:45;;;;;;;10.00;4.13;;;9.70;99.90;;;;;;5036439;28;20200;-45
2022/12/23 06:14:11;;;;;;;12.97;4.70;;;9.70;99.90;;;;;;5036594;28;20191;-46
2022/12/23 06:16:36;;;;;;;10.90;3.53;;;9.70;99.90;;;;;;5036646;28;20191;-44
2022/12/23 06:19:02;;;;;;;10.80;3.73;;;9.80;99.90;;;;;;5036422;28;20177;-44
2022/12/23 06:21:28;;;;;;;6.93;3.50;;;9.80;99.90;;;;;;5018408;28;20202;-45
2022/12/23 06:23:53;;;;;;;10.63;4.20;;;9.70;99.90;;;;;;5036257;28;20580;-43
2022/12/23 06:26:19;;;;;;;9.83;3.93;;;9.70;99.90;;;;;;5018995;28;20657;-46
2022/12/23 06:28:44;;;;;;;13.17;4.23;;;9.70;99.90;;;;;;5036210;28;20179;-43
2022/12/23 06:31:10;;;;;;;9.43;4.17;;;9.70;99.90;;;;;;5036058;28;20680;-43
2022/12/23 06:33:35;;;;;;;7.10;4.07;;;9.80;99.90;;;;;;5036387;28;20187;-46
2022/12/23 06:36:01;;;;;;;11.27;4.13;;;9.70;99.90;;;;;;5036030;28;20678;-45
2022/12/23 06:38:27;;;;;;;6.93;4.03;;;9.80;99.90;;;;;;5035988;28;20184;-44
2022/12/23 06:40:52;;;;;;;6.93;3.97;;;9.80;99.90;;;;;;5036019;28;20573;-45
2022/12/23 06:43:18;;;;;;;8.90;4.10;;;9.80;99.90;;;;;;5036103;28;20537;-44
2022/12/23 06:45:47;;;;;;;7.87;4.17;;;9.80;99.90;;;;;;5036128;28;20293;-45
2022/12/23 06:48:13;;;;;;;9.40;4.20;;;9.70;99.90;;;;;;5035873;28;20202;-45
2022/12/23 06:50:39;;;;;;;8.83;4.20;;;9.80;99.90;;;;;;5035846;28;20267;-45
2022/12/23 06:53:04;;;;;;;8.63;4.43;;;9.70;99.90;;;;;;5036234;28;20218;-45
2022/12/23 06:55:31;;;;;;;12.63;4.60;;;9.80;99.90;;;;;;5035633;28;20599;-46
2022/12/23 06:57:56;;;;;;;9.47;4.10;;;9.80;99.90;;;;;;5035519;28;20192;-45
2022/12/23 07:00:22;;;;;;;9.83;4.47;;;9.70;99.90;;;;;;5035435;28;20193;-43
2022/12/23 07:02:48;;;;;;;7.30;4.93;;;9.70;99.90;;;;;;5035838;28;20179;-43
2022/12/23 07:05:13;;;;;;;8.93;4.90;;;9.70;99.90;;;;;;5035933;28;20226;-44
2022/12/23 07:07:39;;;;;;;12.10;4.63;;;9.70;99.90;;;;;;5035767;28;20191;-46
2022/12/23 07:10:05;;;;;;;9.53;4.90;;;9.70;99.90;;;;;;5035795;28;20504;-45
2022/12/23 07:12:31;;;;;;;14.63;6.00;;;9.70;99.90;;;;;;5035614;28;20208;-43
2022/12/23 07:14:57;;;;;;;9.30;5.33;;;9.70;99.90;;;;;;5035287;28;20694;-44
2022/12/23 07:17:22;;;;;;;10.87;5.77;;;9.70;99.90;;;;;;5035292;28;20275;-44
2022/12/23 07:19:48;;;;;;;13.63;5.50;;;9.70;99.90;;;;;;5035472;28;20198;-44
2022/12/23 07:22:13;;;;;;;11.53;5.37;;;9.70;99.90;;;;;;5017541;28;20236;-45
2022/12/23 07:24:39;;;;;;;10.30;5.80;;;9.70;99.90;;;;;;5035257;28;20269;-44
2022/12/23 07:27:04;;;;;;;12.57;5.80;;;9.70;99.90;;;;;;5035108;28;20176;-44
2022/12/23 07:29:30;;;;;;;8.37;4.97;;;9.70;99.90;;;;;;5035330;28;20262;-43
2022/12/23 07:31:55;;;;;;;10.00;5.63;;;9.70;99.90;;;;;;5035007;28;20206;-45
2022/12/23 07:34:21;;;;;;;11.63;5.00;;;9.70;99.90;;;;;;5035640;28;20268;-46
2022/12/23 07:36:46;;;;;;;11.43;5.70;;;9.70;99.90;;;;;;5035003;28;20173;-47
2022/12/23 07:39:12;;;;;;;7.50;5.17;;;9.70;99.90;;;;;;5035002;28;20181;-44
2022/12/23 07:41:37;;;;;;;10.57;5.67;;;9.70;99.90;;;;;;5034868;28;20203;-45
2022/12/23 07:44:03;;;;;;;8.83;5.10;;;9.70;99.90;;;;;;5034896;28;20180;-43
2022/12/23 07:46:29;;;;;;;13.43;6.30;;;9.70;99.90;;;;;;5034883;28;20181;-45
2022/12/23 07:48:54;;;;;;;12.90;5.77;;;9.70;99.90;;;;;;5034755;28;20177;-44
2022/12/23 07:51:20;;;;;;;15.43;6.97;;;9.70;99.90;;;;;;5016897;28;20201;-44
2022/12/23 07:53:49;;;;;;;11.70;6.40;;;9.60;99.90;;;;;;5034547;28;20180;-46
2022/12/23 07:56:15;;;;;;;12.80;6.57;;;9.60;99.90;;;;;;5016787;28;20214;-46
2022/12/23 07:58:41;;;;;;;13.43;7.47;;;9.60;99.90;;;;;;5034610;28;20185;-45
2022/12/23 08:01:06;;;;;;;14.60;7.27;;;9.60;99.90;;;;;;5034837;28;20197;-44
2022/12/23 08:03:33;;;;;;;12.70;7.37;;;9.60;99.90;;;;;;5036836;28;20180;-45
2022/12/23 08:06:01;;;;;;;12.67;5.73;;;9.60;99.90;;;;;;5037374;28;20182;-44
2022/12/23 08:08:26;;;;;;;12.67;5.90;;;9.60;99.90;;;;;;5037096;28;20582;-45
2022/12/23 08:10:57;;;;;;;12.43;5.93;;;9.60;99.90;;;;;;5034635;28;20207;-43
2022/12/23 08:13:22;;;;;;;13.33;5.70;;;9.60;99.90;;;;;;5034094;28;20266;-44
2022/12/23 08:15:52;;;;;;;10.93;5.10;;;9.70;99.90;;;;;;5033911;28;20299;-46
2022/12/23 08:18:17;;;;;;;11.77;5.40;;;9.60;99.90;;;;;;5034286;28;20265;-44
2022/12/23 08:20:43;;;;;;;13.47;5.80;;;9.70;99.90;;;;;;5034045;28;20291;-46
2022/12/23 08:23:09;;;;;;;11.93;6.17;;;9.70;99.90;;;;;;5034441;28;20177;-43
2022/12/23 08:25:34;;;;;;;13.90;6.27;;;9.70;99.90;;;;;;5034083;28;20174;-46
2022/12/23 08:27:59;;;;;;;15.13;6.30;;;9.70;99.90;;;;;;5034221;28;20199;-45
2022/12/23 08:30:25;;;;;;;9.87;5.40;;;9.70;99.90;;;;;;5034076;28;20236;-45
2022/12/23 08:32:50;;;;;;;14.40;5.50;;;9.70;99.90;;;;;;5034274;28;20595;-43
2022/12/23 08:35:16;;;;;;;10.53;5.33;;;9.60;99.90;;;;;;5033715;28;20616;-45
2022/12/23 08:37:41;;;;;;;12.37;5.67;;;9.70;99.90;;;;;;5033767;28;20227;-44
2022/12/23 08:40:08;;;;;;;10.07;5.27;;;9.70;99.90;;;;;;5034079;28;20216;-44
2022/12/23 08:42:33;;;;;;;8.67;5.27;;;9.60;99.90;;;;;;5034163;28;20191;-45
2022/12/23 08:44:59;;;;;;;11.97;5.40;;;9.60;99.90;;;;;;5033753;28;20661;-46
2022/12/23 08:47:25;;;;;;;13.20;6.13;;;9.70;99.90;;;;;;5033660;28;20179;-45
2022/12/23 08:49:50;;;;;;;11.93;6.50;;;9.60;99.90;;;;;;5033627;28;20199;-44
2022/12/23 08:52:16;;;;;;;9.90;5.63;;;9.70;99.90;;;;;;5015941;28;20229;-46
2022/12/23 08:54:41;;;;;;;10.80;5.73;;;9.60;99.90;;;;;;5033727;28;20203;-45
2022/12/23 08:57:07;;;;;;;9.10;5.90;;;9.60;99.90;;;;;;5033774;28;20647;-43
2022/12/23 08:59:32;;;;;;;10.93;6.07;;;9.70;99.90;;;;;;5033384;28;20190;-44
2022/12/23 09:02:00;;;;;;;11.07;6.10;;;9.70;99.90;;;;;;5033625;28;20275;-43
2022/12/23 09:04:26;;;;;;;11.43;6.43;;;9.70;99.90;;;;;;5033590;28;20183;-46
2022/12/23 09:06:51;;;;;;;11.63;5.93;;;9.70;99.90;;;;;;5033452;28;20302;-44
2022/12/23 09:09:17;;;;;;;9.23;6.30;;;9.60;99.90;;;;;;5033659;28;20659;-43
2022/12/23 09:11:43;;;;;;;12.40;6.83;;;9.60;99.90;;;;;;5033948;28;20195;-45
2022/12/23 09:14:10;;;;;;;10.77;5.97;;;9.60;99.90;;;;;;5034434;28;20175;-44
2022/12/23 09:16:36;;;;;;;10.07;5.87;;;9.60;99.90;;;;;;5033584;28;20347;-46
2022/12/23 09:19:02;;;;;;;9.00;5.00;;;9.60;99.90;;;;;;5033640;28;20191;-47
2022/12/23 09:21:28;;;;;;;7.90;5.43;;;9.60;99.90;;;;;;5033260;28;20196;-44
2022/12/23 09:23:53;;;;;;;9.33;4.97;;;9.60;99.90;;;;;;5033489;28;20348;-44
2022/12/23 09:26:25;;;;;;;8.97;5.37;;;9.60;99.90;;;;;;5016764;28;20188;-45
2022/12/23 09:28:51;;;;;;;12.03;5.97;;;9.60;99.90;;;;;;5037626;28;20179;-44
2022/12/23 09:31:17;;;;;;;8.40;5.33;;;9.60;99.90;;;;;;5037479;28;20207;-44
2022/12/23 09:33:47;;;;;;;7.77;5.07;;;9.60;99.90;;;;;;5037198;28;20203;-45
2022/12/23 09:36:12;;;;;;;8.13;4.77;;;9.60;99.90;;;;;;5037437;28;20200;-46
2022/12/23 09:38:38;;;;;;;9.97;5.10;;;9.60;99.90;;;;;;5037433;28;20186;-44
2022/12/23 09:41:33;;;;;;;7.10;4.87;;;9.60;99.90;;;;;;5037432;28;20738;-44
2022/12/23 09:44:02;;;;;;;10.07;5.20;;;9.60;99.90;;;;;;5037035;28;20176;-46
2022/12/23 09:46:30;;;;;;;10.17;5.33;;;9.60;99.90;;;;;;5037163;28;20183;-44
2022/12/23 09:49:09;;;;;;;10.17;6.20;;;9.60;99.90;;;;;;5037285;28;20177;-44
2022/12/23 09:51:35;;;;;;;9.13;5.57;;;9.60;99.90;;;;;;5036991;28;20201;-45
2022/12/23 09:54:23;;;;;;;7.70;5.30;;;9.50;99.90;;;;;;5036915;28;20642;-43
2022/12/23 09:57:07;;;;;;;11.10;5.80;;;9.60;99.90;;;;;;5037124;28;20572;-45
2022/12/23 09:59:48;;;;;;;14.30;5.50;;;9.50;99.90;;;;;;5036849;28;20566;-44
2022/12/23 10:02:37;;;;;;;9.97;5.53;;;9.50;99.90;;;;;;5036809;28;20560;-46
2022/12/23 10:05:34;;;;;;;11.67;4.83;;;9.50;99.90;;;;;;5036896;28;20504;-46
2022/12/23 10:08:16;;;;;;;12.27;5.13;;;9.60;99.90;;;;;;5018841;28;20168;-44
2022/12/23 10:10:47;;;;;;;10.47;5.63;;;9.60;99.90;;;;;;5037084;28;20675;-46
2022/12/23 10:13:30;;;;;;;12.33;5.07;;;9.60;99.90;;;;;;5019507;28;20180;-46
2022/12/23 10:16:03;;;;;;;9.70;5.13;;;9.60;99.90;;;;;;5036987;28;20592;-45
2022/12/23 10:18:40;;;;;;;7.43;5.27;;;9.60;99.90;;;;;;5036983;28;20176;-45
2022/12/23 10:21:17;;;;;;;7.87;5.17;;;9.70;99.90;;;;;;5036506;28;20204;-51
2022/12/23 10:23:48;;;;;;;8.00;5.17;;;9.70;99.90;;;;;;5036738;28;20247;-48
2022/12/23 10:26:22;;;;;;;8.23;4.83;;;9.70;99.90;;;;;;5036689;28;20351;-49
2022/12/23 10:36:08;;;;;;;8.37;6.00;;;9.70;99.90;;;;;;5037255;28;20288;-46
2022/12/23 10:39:00;;;;;;;12.37;6.47;;;9.80;99.90;;;;;;5018896;28;20738;-45
2022/12/23 10:41:54;;;;;;;14.67;6.37;;;9.70;99.90;;;;;;5018874;28;20702;-50
2022/12/23 10:44:38;;;;;;;12.23;5.87;;;9.80;99.90;;;;;;5019205;28;20207;-48
2022/12/23 10:47:38;;;;;;;11.07;6.53;;;9.80;99.90;;;;;;5037125;28;20508;-48
2022/12/23 10:50:31;;;;;;;9.03;5.40;;;9.80;99.90;;;;;;5019254;28;20166;-46
2022/12/23 10:53:00;;;;;;;11.20;4.97;;;9.80;99.90;;;;;;5037111;28;20171;-45
2022/12/23 10:55:32;;;;;;;9.93;5.50;;;9.80;99.90;;;;;;5018866;28;20298;-49
2022/12/23 10:58:08;;;;;;;7.37;4.87;;;9.80;99.90;;;;;;5018728;28;20175;-46
2022/12/23 11:00:37;;;;;;;9.40;5.23;;;9.80;99.90;;;;;;5018662;28;20233;-50
2022/12/23 11:03:22;;;;;;;10.43;5.13;;;9.80;99.90;;;;;;5036497;28;20195;-50
2022/12/23 11:05:49;;;;;;;8.90;4.60;;;9.80;99.90;;;;;;5018592;28;20245;-50
2022/12/23 11:08:15;;;;;;;9.20;5.07;;;9.90;99.90;;;;;;5035520;28;20723;-49
2022/12/23 11:10:41;;;;;;;7.73;4.57;;;9.90;99.90;;;;;;5017774;28;20204;-49
2022/12/23 11:13:07;;;;;;;9.43;5.17;;;9.90;99.90;;;;;;5017728;28;20233;-49
2022/12/23 11:15:35;;;;;;;8.90;4.53;;;9.90;99.90;;;;;;5018347;28;20208;-49
2022/12/23 11:18:26;;;;;;;8.80;3.73;;;9.90;99.90;;;;;;5035583;28;20534;-48
2022/12/23 11:21:03;;;;;;;8.43;3.13;;;9.90;99.90;;;;;;5034942;28;20303;-49
2022/12/23 11:23:32;;;;;;;6.87;3.10;;;9.90;99.90;;;;;;5035758;28;20187;-49
2022/12/23 11:26:08;;;;;;;9.67;2.60;;;9.90;99.90;;;;;;5035576;28;20256;-49
2022/12/23 11:28:37;;;;;;;5.47;2.33;;;9.90;99.90;;;;;;5035175;28;20635;-48
2022/12/23 11:31:10;;;;;;;4.57;1.93;;;9.80;99.90;;;;;;5035261;28;20688;-49
2022/12/23 11:33:56;;;;;;;4.40;2.20;;;9.80;99.90;;;;;;5035153;28;20167;-49
2022/12/23 11:36:26;;;;;;;3.90;1.70;;;9.80;99.90;;;;;;5017201;28;20543;-49
2022/12/23 11:39:13;;;;;;;4.40;1.60;;;9.70;99.90;;;;;;5017408;28;20184;-49
2022/12/23 11:41:41;;;;;;;5.63;2.27;;;9.70;99.90;;;;;;5017291;28;20258;-48
2022/12/23 11:44:19;;;;;;;3.90;1.80;;;9.70;99.90;;;;;;5017340;28;20176;-48
2022/12/23 11:46:45;;;;;;;6.60;2.23;;;9.70;99.90;;;;;;5035653;28;20258;-51
2022/12/23 11:49:22;;;;;;;5.67;3.20;;;9.70;99.90;;;;;;5034033;28;20214;-48
2022/12/23 11:52:06;;;;;;;4.20;2.77;;;9.60;99.90;;;;;;5034902;28;20197;-49
2022/12/23 11:54:33;;;;;;;6.07;3.00;;;9.60;99.90;;;;;;5034770;28;20170;-48
2022/12/23 11:57:02;;;;;;;7.40;2.67;;;9.70;99.90;;;;;;5035136;28;20178;-48
2022/12/23 11:59:32;;;;;;;4.17;2.23;;;9.60;99.90;;;;;;5034420;28;20278;-48
2022/12/23 12:02:01;;;;;;;7.23;2.90;;;9.60;99.90;;;;;;5034735;28;20207;-50
2022/12/23 12:04:33;;;;;;;7.33;2.67;;;9.60;99.90;;;;;;5016801;28;20187;-49
2022/12/23 12:07:00;;;;;;;6.60;2.20;;;9.60;99.90;;;;;;5034894;28;20568;-51
2022/12/23 12:09:28;;;;;;;4.87;2.10;;;9.60;99.90;;;;;;5034565;28;20206;-50
2022/12/23 12:12:04;;;;;;;3.60;2.20;;;9.60;99.90;;;;;;5016527;28;20238;-49
2022/12/23 12:14:42;;;;;;;5.03;2.30;;;9.60;99.90;;;;;;5034312;28;20668;-48
2022/12/23 12:17:17;;;;;;;7.77;2.50;;;9.60;99.90;;;;;;5034937;28;20168;-49
2022/12/23 12:19:58;;;;;;;6.07;2.30;;;9.60;99.90;;;;;;5034637;28;20190;-49
2022/12/23 12:22:45;;;;;;;6.70;2.10;;;9.60;99.90;;;;;;5034466;28;20200;-49
2022/12/23 12:25:33;;;;;;;2.63;1.70;;;9.60;99.90;;;;;;5035193;28;20164;-43
2022/12/23 12:28:03;;;;;;;4.73;1.70;;;9.60;99.90;;;;;;5038604;28;20196;-46
2022/12/23 12:30:33;;;;;;;2.97;1.50;;;9.60;99.90;;;;;;5036573;28;20176;-45
2022/12/23 12:33:04;;;;;;;5.23;1.30;;;9.60;99.90;;;;;;5037965;28;20180;-44
2022/12/23 12:35:53;;;;;;;4.27;1.20;;;9.50;99.90;;;;;;5016581;28;20289;-45
2022/12/23 12:38:28;;;;;;;5.40;1.50;;;9.50;99.90;;;;;;5021764;28;20192;-43
2022/12/23 12:41:01;;;;;;;1.47;1.10;;;9.50;99.90;;;;;;5034062;28;20310;-43
2022/12/23 12:43:33;;;;;;;2.13;1.00;;;9.50;99.90;;;;;;5034460;28;20632;-43
2022/12/23 12:46:12;;;;;;;3.60;1.33;;;9.50;99.90;;;;;;5034125;28;20188;-45
2022/12/23 12:48:53;;;;;;;5.63;1.73;;;9.50;99.90;;;;;;5034098;28;20664;-45
2022/12/23 12:51:28;;;;;;;3.83;1.10;;;9.50;99.90;;;;;;5033645;28;20207;-43
2022/12/23 12:54:17;;;;;;;5.27;1.23;;;9.50;99.90;;;;;;5034168;28;20195;-43
2022/12/23 12:56:48;;;;;;;5.07;1.40;;;9.40;99.90;;;;;;5033829;28;20306;-44
2022/12/23 12:59:25;;;;;;;2.80;1.20;;;9.40;99.90;;;;;;5033797;28;20193;-45
2022/12/23 13:02:22;;;;;;;2.67;1.10;;;9.40;99.90;;;;;;5033851;28;20199;-44
2022/12/23 13:04:53;;;;;;;5.33;1.60;;;9.40;99.90;;;;;;5033825;28;20211;-42
2022/12/23 13:07:43;;;;;;;2.27;1.30;;;9.40;99.90;;;;;;5033916;28;20173;-44
2022/12/23 13:10:35;;;;;;;3.00;1.27;;;9.40;99.90;;;;;;5033700;28;20178;-45
2022/12/23 13:13:24;;;;;;;3.37;1.30;;;9.30;99.90;;;;;;5003272;28;20597;-44
2022/12/23 13:16:17;;;;;;;2.30;1.27;;;9.30;99.90;;;;;;5033690;28;20536;-45
2022/12/23 13:18:50;;;;;;;5.13;1.70;;;9.40;99.90;;;;;;5033651;28;20172;-43
2022/12/23 13:21:46;;;;;;;1.27;0.93;;;9.30;99.90;;;;;;5033385;28;20253;-45
2022/12/23 13:24:34;;;;;;;2.87;1.23;;;9.30;99.90;;;;;;5033589;28;20229;-43
2022/12/23 13:27:05;;;;;;;1.67;0.63;;;9.40;99.90;;;;;;5033355;28;20191;-46
2022/12/23 13:29:34;;;;;;;1.80;1.10;;;9.40;99.90;;;;;;5033936;28;20593;-44
2022/12/23 13:32:22;;;;;;;2.67;0.70;;;9.40;99.90;;;;;;5033182;28;20198;-43
2022/12/23 13:35:12;;;;;;;2.17;0.60;;;9.40;99.90;;;;;;5033278;28;20610;-45
2022/12/23 13:37:53;;;;;;;6.27;1.10;;;9.40;99.90;;;;;;5033227;28;20169;-44
2022/12/23 13:40:41;;;;;;;1.23;1.03;;;9.50;99.90;;;;;;5033454;28;20162;-45
2022/12/23 13:43:18;;;;;;;2.17;1.03;;;9.40;99.90;;;;;;5033509;28;20169;-46
2022/12/23 13:45:46;;;;;;;1.47;1.10;;;9.40;99.90;;;;;;5033064;28;20601;-46
2022/12/23 13:48:46;;;;;;;1.20;0.80;;;9.40;99.90;;;;;;5015582;28;20554;-50